Terminal Aerodrome Forecast
Issued by NWS Riverton, WY

Home | Current Version | Previous Version | Text Only | Print | Product List | Glossary On
Versions: 1 2 3 4 5 6 7 8 9 10 11 12 13 14 15 16 17 18 19
000
FTUS45 KRIW 011100 AAA
TAFRIW
TAF AMD
KRIW 011140Z 0112/0212 06006KT P6SM -SN SCT013 OVC023
      TEMPO 0112/0113 6SM -SN BKN013
     FM011600 VRB05KT P6SM SCT025 SCT200
     FM011800 VRB05KT P6SM SCT200
     FM020400 30008KT P6SM BKN060=

USA.gov is the U.S. government's official web portal to all federal, state and local government web resources and services.